Time;durP1;ratioP1;P1;durP2;ratioP2;P2;SDS_P1;SDS_P2;PMS_P1;PMS_P2;Temp;Humidity;BMP_temperature;BMP_pressure;BME280_temperature;BME280_humidity;BME280_pressure;Samples;Min_cycle;Max_cycle;Signal;HPM_P1;HPM_P2
2021/04/17 00:14:36;;;;;;;;;;;;;;;;;;5086695;28;20885;-61
2021/04/17 00:17:03;;;;;;;0.20;0.20;;;;;;;;;;5068074;28;19913;-61
2021/04/17 00:19:29;;;;;;;0.30;0.30;;;;;;;;;;5056385;28;20075;-62
2021/04/17 00:21:55;;;;;;;0.20;0.20;;;;;;;;;;5056542;28;20033;-61
2021/04/17 00:24:21;;;;;;;0.20;0.20;;;;;;;;;;5056017;28;20036;-61
2021/04/17 00:26:48;;;;;;;0.20;0.20;;;;;;;;;;5053728;28;20028;-62
2021/04/17 00:29:14;;;;;;;0.20;0.20;;;;;;;;;;5050969;28;20025;-61
2021/04/17 00:31:40;;;;;;;0.30;0.30;;;;;;;;;;5056154;28;20044;-62
2021/04/17 00:34:06;;;;;;;0.30;0.30;;;;;;;;;;5055949;28;20041;-61
2021/04/17 00:36:32;;;;;;;0.22;0.22;;;;;;;;;;5056456;28;20036;-61
2021/04/17 00:38:58;;;;;;;0.30;0.30;;;;;;;;;;5054734;28;20490;-61
2021/04/17 00:41:25;;;;;;;0.20;0.20;;;;;;;;;;5052105;28;20029;-61
2021/04/17 00:43:51;;;;;;;0.20;0.20;;;;;;;;;;5053507;28;20495;-62
2021/04/17 00:46:17;;;;;;;0.20;0.20;;;;;;;;;;5055514;28;20818;-61
2021/04/17 00:48:43;;;;;;;0.20;0.20;;;;;;;;;;5055591;28;20029;-60
2021/04/17 00:51:10;;;;;;;0.20;0.20;;;;;;;;;;5050750;28;20033;-60
2021/04/17 00:53:37;;;;;;;0.28;0.28;;;;;;;;;;5051610;28;20031;-66
2021/04/17 00:56:07;;;;;;;0.35;0.35;;;;;;;;;;5078532;28;20052;-61
2021/04/17 00:58:34;;;;;;;0.25;0.25;;;;;;;;;;5055844;28;20051;-61
2021/04/17 01:01:01;;;;;;;0.30;0.30;;;;;;;;;;5055855;28;20035;-61
2021/04/17 01:03:35;;;;;;;0.30;0.30;;;;;;;;;;5054883;28;20123;-62
2021/04/17 01:06:07;;;;;;;0.30;0.30;;;;;;;;;;5054557;28;20028;-61
2021/04/17 01:08:34;;;;;;;0.30;0.30;;;;;;;;;;5050771;28;20029;-61
2021/04/17 01:11:02;;;;;;;0.30;0.30;;;;;;;;;;5051672;28;20028;-61
2021/04/17 01:13:28;;;;;;;0.20;0.20;;;;;;;;;;5052656;28;20240;-62
2021/04/17 01:15:55;;;;;;;0.20;0.20;;;;;;;;;;5047117;28;20039;-61
2021/04/17 01:18:22;;;;;;;0.30;0.30;;;;;;;;;;5051460;28;20107;-61
2021/04/17 01:20:51;;;;;;;0.20;0.20;;;;;;;;;;5051798;28;20048;-61
2021/04/17 01:23:17;;;;;;;0.30;0.30;;;;;;;;;;5052497;28;20045;-61
2021/04/17 01:25:52;;;;;;;0.20;0.20;;;;;;;;;;5050509;28;20441;-60
2021/04/17 01:28:19;;;;;;;0.30;0.30;;;;;;;;;;5051441;28;20055;-62
2021/04/17 01:30:46;;;;;;;0.20;0.20;;;;;;;;;;5049915;28;20025;-61
2021/04/17 01:33:13;;;;;;;0.20;0.20;;;;;;;;;;5051181;28;20048;-61
2021/04/17 01:35:39;;;;;;;0.22;0.22;;;;;;;;;;5050336;28;20037;-61
2021/04/17 01:38:24;;;;;;;0.20;0.20;;;;;;;;;;5053258;28;20028;-61
2021/04/17 01:40:53;;;;;;;0.30;0.30;;;;;;;;;;5051604;28;20033;-62
2021/04/17 01:43:22;;;;;;;0.30;0.30;;;;;;;;;;5051202;28;20043;-61
2021/04/17 01:45:48;;;;;;;0.30;0.30;;;;;;;;;;5050959;28;20028;-60
2021/04/17 01:48:14;;;;;;;0.30;0.30;;;;;;;;;;5051161;28;20125;-61
2021/04/17 01:50:41;;;;;;;0.30;0.30;;;;;;;;;;5051266;28;20500;-61
2021/04/17 01:53:09;;;;;;;0.20;0.20;;;;;;;;;;5052836;28;20025;-61
2021/04/17 01:55:35;;;;;;;0.20;0.20;;;;;;;;;;5051360;28;20025;-61
2021/04/17 01:58:03;;;;;;;0.30;0.30;;;;;;;;;;5051030;28;20028;-61
2021/04/17 02:00:29;;;;;;;0.30;0.30;;;;;;;;;;5050783;28;20021;-61
2021/04/17 02:02:55;;;;;;;0.30;0.30;;;;;;;;;;5049217;28;20060;-61
2021/04/17 02:05:21;;;;;;;0.20;0.20;;;;;;;;;;5051155;28;20029;-61
2021/04/17 02:07:48;;;;;;;0.22;0.22;;;;;;;;;;5050573;28;20068;-61
2021/04/17 02:10:14;;;;;;;0.20;0.20;;;;;;;;;;5049210;28;20025;-61
2021/04/17 02:12:40;;;;;;;0.20;0.20;;;;;;;;;;5050754;28;20040;-60
2021/04/17 02:15:07;;;;;;;0.35;0.35;;;;;;;;;;5050575;28;20040;-61
2021/04/17 02:17:42;;;;;;;0.20;0.20;;;;;;;;;;5050757;28;20490;-61
2021/04/17 02:20:16;;;;;;;0.20;0.20;;;;;;;;;;5048744;28;20111;-60
2021/04/17 02:22:43;;;;;;;0.40;0.40;;;;;;;;;;5051560;28;20044;-60
2021/04/17 02:25:10;;;;;;;0.30;0.30;;;;;;;;;;5049895;28;20032;-61
2021/04/17 02:27:37;;;;;;;0.30;0.30;;;;;;;;;;5049807;28;20040;-61
2021/04/17 02:30:03;;;;;;;0.20;0.20;;;;;;;;;;5050352;28;20545;-61
2021/04/17 02:32:30;;;;;;;0.30;0.30;;;;;;;;;;5050511;28;20371;-61
2021/04/17 02:34:56;;;;;;;0.40;0.40;;;;;;;;;;5052196;28;20032;-60
2021/04/17 02:37:22;;;;;;;0.20;0.20;;;;;;;;;;5050359;28;20441;-61
2021/04/17 02:39:48;;;;;;;0.30;0.30;;;;;;;;;;5050196;28;20475;-62
2021/04/17 02:42:15;;;;;;;0.30;0.30;;;;;;;;;;5048764;28;20553;-60
2021/04/17 02:44:41;;;;;;;0.20;0.20;;;;;;;;;;5050059;28;20083;-62
2021/04/17 02:47:08;;;;;;;0.25;0.25;;;;;;;;;;5052141;28;20419;-60
2021/04/17 02:49:34;;;;;;;0.20;0.20;;;;;;;;;;5049195;28;20029;-61
2021/04/17 02:52:00;;;;;;;0.30;0.30;;;;;;;;;;5049970;28;20487;-61
2021/04/17 02:54:26;;;;;;;0.47;0.47;;;;;;;;;;5050095;28;20588;-61
2021/04/17 02:56:53;;;;;;;0.20;0.20;;;;;;;;;;5050025;28;20051;-61
2021/04/17 02:59:19;;;;;;;0.22;0.22;;;;;;;;;;5050301;28;20044;-62
2021/04/17 03:01:45;;;;;;;0.20;0.20;;;;;;;;;;5051327;28;20029;-63
2021/04/17 03:04:11;;;;;;;0.20;0.20;;;;;;;;;;5049642;28;20076;-64
2021/04/17 03:06:37;;;;;;;0.30;0.30;;;;;;;;;;5049917;28;20036;-63
2021/04/17 03:09:04;;;;;;;0.30;0.30;;;;;;;;;;5049864;28;20033;-63
2021/04/17 03:11:30;;;;;;;0.30;0.30;;;;;;;;;;5049818;28;20115;-62
2021/04/17 03:13:56;;;;;;;0.30;0.30;;;;;;;;;;5051096;28;20057;-63
2021/04/17 03:16:22;;;;;;;0.20;0.20;;;;;;;;;;5048419;28;20036;-62
2021/04/17 03:18:48;;;;;;;0.82;0.80;;;;;;;;;;5049810;28;20061;-63
2021/04/17 03:21:14;;;;;;;0.30;0.30;;;;;;;;;;5048028;28;20027;-63
2021/04/17 03:23:41;;;;;;;0.30;0.30;;;;;;;;;;5049607;28;20457;-63
2021/04/17 03:26:07;;;;;;;0.30;0.30;;;;;;;;;;5051067;28;20066;-64
2021/04/17 03:28:33;;;;;;;0.43;0.43;;;;;;;;;;5048176;28;20154;-63
2021/04/17 03:30:59;;;;;;;0.30;0.30;;;;;;;;;;5049419;28;20083;-64
2021/04/17 03:33:25;;;;;;;0.20;0.20;;;;;;;;;;5049231;28;20036;-63
2021/04/17 03:35:51;;;;;;;0.40;0.40;;;;;;;;;;5049559;28;20121;-63
2021/04/17 03:38:19;;;;;;;0.35;0.35;;;;;;;;;;5049975;28;20036;-63
2021/04/17 03:40:45;;;;;;;1.17;1.17;;;;;;;;;;5050707;28;20035;-63
2021/04/17 03:43:12;;;;;;;1.17;0.82;;;;;;;;;;5048844;28;20037;-63
2021/04/17 03:45:38;;;;;;;1.17;0.93;;;;;;;;;;5049282;28;20103;-63
2021/04/17 03:48:04;;;;;;;0.75;0.75;;;;;;;;;;5048734;28;20075;-63
2021/04/17 03:50:30;;;;;;;0.20;0.20;;;;;;;;;;5049229;28;20028;-63
2021/04/17 03:52:56;;;;;;;0.30;0.30;;;;;;;;;;5051149;28;20489;-63
2021/04/17 03:55:22;;;;;;;0.20;0.20;;;;;;;;;;5049229;28;20112;-63
2021/04/17 03:57:49;;;;;;;0.20;0.20;;;;;;;;;;5048702;28;20040;-61
2021/04/17 04:00:18;;;;;;;0.35;0.32;;;;;;;;;;5047622;28;20492;-61
2021/04/17 04:02:44;;;;;;;0.25;0.25;;;;;;;;;;5049091;28;20132;-61
2021/04/17 04:05:10;;;;;;;0.20;0.20;;;;;;;;;;5050806;28;20033;-61
2021/04/17 04:07:37;;;;;;;0.22;0.22;;;;;;;;;;5046763;28;20159;-64
2021/04/17 04:10:04;;;;;;;1.10;0.60;;;;;;;;;;5048959;28;20037;-62
2021/04/17 04:12:31;;;;;;;0.20;0.20;;;;;;;;;;5048417;28;20033;-63
2021/04/17 04:14:57;;;;;;;0.50;0.50;;;;;;;;;;5048870;28;20036;-63
2021/04/17 04:17:23;;;;;;;0.20;0.20;;;;;;;;;;5049133;28;20505;-66
2021/04/17 04:19:49;;;;;;;0.30;0.30;;;;;;;;;;5050870;28;20033;-63
2021/04/17 04:22:15;;;;;;;0.30;0.30;;;;;;;;;;5048662;28;20021;-63
2021/04/17 04:24:41;;;;;;;0.32;0.32;;;;;;;;;;5048595;28;20071;-63
2021/04/17 04:27:07;;;;;;;0.30;0.30;;;;;;;;;;5048898;28;20102;-63
2021/04/17 04:29:33;;;;;;;0.30;0.30;;;;;;;;;;5048944;28;20032;-62
2021/04/17 04:31:59;;;;;;;0.98;0.85;;;;;;;;;;5050428;28;20029;-63
2021/04/17 04:34:26;;;;;;;0.45;0.38;;;;;;;;;;5048666;28;20041;-62
2021/04/17 04:36:52;;;;;;;0.20;0.20;;;;;;;;;;5048744;28;20024;-63
2021/04/17 04:39:18;;;;;;;0.30;0.30;;;;;;;;;;5047334;28;20083;-62
2021/04/17 04:41:44;;;;;;;0.30;0.30;;;;;;;;;;5046241;28;20402;-63
2021/04/17 04:44:10;;;;;;;0.40;0.40;;;;;;;;;;5050140;28;20040;-62
2021/04/17 04:46:36;;;;;;;2.15;2.05;;;;;;;;;;5049844;28;20048;-62
2021/04/17 04:49:02;;;;;;;0.20;0.20;;;;;;;;;;5049167;28;20086;-62
2021/04/17 04:51:28;;;;;;;0.30;0.30;;;;;;;;;;5052378;28;20032;-62
2021/04/17 04:53:55;;;;;;;0.30;0.30;;;;;;;;;;5052432;28;20039;-63
2021/04/17 04:56:21;;;;;;;0.30;0.30;;;;;;;;;;5052448;28;20039;-62
2021/04/17 04:58:47;;;;;;;0.30;0.30;;;;;;;;;;5053921;28;20036;-62
2021/04/17 05:01:14;;;;;;;0.30;0.30;;;;;;;;;;5052056;28;20032;-62
2021/04/17 05:03:40;;;;;;;0.30;0.30;;;;;;;;;;5050936;28;20037;-59
2021/04/17 05:06:06;;;;;;;0.30;0.30;;;;;;;;;;5052996;28;20021;-59
2021/04/17 05:08:32;;;;;;;3.45;1.52;;;;;;;;;;5052333;28;20036;-60
2021/04/17 05:10:58;;;;;;;0.20;0.20;;;;;;;;;;5053765;28;20041;-60
2021/04/17 05:13:24;;;;;;;0.30;0.30;;;;;;;;;;5052671;28;20399;-60
2021/04/17 05:15:50;;;;;;;0.20;0.20;;;;;;;;;;5052580;28;20025;-60
2021/04/17 05:18:16;;;;;;;0.20;0.20;;;;;;;;;;5052822;28;20068;-60
2021/04/17 05:20:42;;;;;;;13.48;12.35;;;;;;;;;;5052625;28;20522;-60
2021/04/17 05:23:09;;;;;;;0.20;0.20;;;;;;;;;;5052718;28;20041;-60
2021/04/17 05:25:35;;;;;;;0.30;0.30;;;;;;;;;;5052304;28;20479;-60
2021/04/17 05:28:01;;;;;;;0.20;0.20;;;;;;;;;;5052861;28;20161;-60
2021/04/17 05:30:27;;;;;;;0.30;0.30;;;;;;;;;;5052741;28;20024;-60
2021/04/17 05:32:53;;;;;;;0.20;0.20;;;;;;;;;;5052792;28;20498;-60
2021/04/17 05:35:19;;;;;;;0.20;0.20;;;;;;;;;;5052948;28;20029;-60
2021/04/17 05:37:45;;;;;;;0.20;0.20;;;;;;;;;;5053084;28;20427;-63
2021/04/17 05:40:12;;;;;;;0.63;0.63;;;;;;;;;;5044241;28;20501;-63
2021/04/17 05:42:38;;;;;;;0.30;0.30;;;;;;;;;;5044683;28;20051;-63
2021/04/17 05:45:04;;;;;;;0.22;0.22;;;;;;;;;;5052341;28;20025;-62
2021/04/17 05:47:31;;;;;;;0.30;0.30;;;;;;;;;;5052198;28;20501;-62
2021/04/17 05:49:57;;;;;;;0.20;0.20;;;;;;;;;;5052741;28;20052;-62
2021/04/17 05:52:23;;;;;;;1.25;1.25;;;;;;;;;;5051911;28;20021;-59
2021/04/17 05:54:49;;;;;;;0.25;0.25;;;;;;;;;;5051819;28;20159;-59
2021/04/17 05:57:15;;;;;;;0.30;0.30;;;;;;;;;;5052163;28;20052;-59
2021/04/17 05:59:41;;;;;;;0.30;0.30;;;;;;;;;;5049434;28;20447;-60
2021/04/17 06:02:08;;;;;;;0.30;0.30;;;;;;;;;;5052436;28;20029;-60
2021/04/17 06:04:34;;;;;;;0.10;0.10;;;;;;;;;;5052412;28;20036;-60
2021/04/17 06:07:00;;;;;;;0.40;0.40;;;;;;;;;;5051636;28;20021;-62
2021/04/17 06:09:27;;;;;;;0.20;0.20;;;;;;;;;;5051611;28;20036;-60
2021/04/17 06:11:53;;;;;;;0.20;0.20;;;;;;;;;;5051879;28;20032;-60
2021/04/17 06:14:19;;;;;;;0.22;0.22;;;;;;;;;;5051402;28;20057;-60
2021/04/17 06:16:45;;;;;;;0.20;0.20;;;;;;;;;;5052120;28;20110;-60
2021/04/17 06:19:12;;;;;;;0.20;0.20;;;;;;;;;;5051605;28;20029;-61
2021/04/17 06:21:38;;;;;;;0.50;0.50;;;;;;;;;;5050711;28;20021;-62
2021/04/17 06:24:04;;;;;;;0.20;0.20;;;;;;;;;;5051170;28;20048;-60
2021/04/17 06:26:30;;;;;;;0.13;0.13;;;;;;;;;;5051570;28;20029;-60
2021/04/17 06:28:57;;;;;;;0.22;0.22;;;;;;;;;;5052204;28;20146;-60
2021/04/17 06:31:23;;;;;;;0.15;0.15;;;;;;;;;;5050929;28;20029;-60
2021/04/17 06:33:50;;;;;;;0.17;0.17;;;;;;;;;;5051394;28;20029;-60
2021/04/17 06:36:16;;;;;;;0.20;0.20;;;;;;;;;;5049535;28;20437;-61
2021/04/17 06:38:42;;;;;;;0.20;0.20;;;;;;;;;;5051057;28;20025;-60
2021/04/17 06:41:08;;;;;;;0.40;0.40;;;;;;;;;;5051566;28;20056;-60
2021/04/17 06:43:35;;;;;;;2.05;0.88;;;;;;;;;;5051322;28;20055;-61
2021/04/17 06:46:02;;;;;;;0.95;0.95;;;;;;;;;;5051096;28;20053;-60
2021/04/17 06:48:29;;;;;;;0.43;0.43;;;;;;;;;;5051343;28;20055;-60
2021/04/17 06:50:55;;;;;;;0.10;0.10;;;;;;;;;;5050091;28;20033;-61
2021/04/17 06:53:22;;;;;;;3.30;3.10;;;;;;;;;;5051039;28;20064;-62
2021/04/17 06:55:49;;;;;;;1.08;1.05;;;;;;;;;;5049355;28;20103;-60
2021/04/17 06:58:17;;;;;;;26.30;1.33;;;;;;;;;;5050670;28;20078;-60
2021/04/17 07:00:43;;;;;;;0.20;0.20;;;;;;;;;;5050538;28;20021;-61
2021/04/17 07:03:09;;;;;;;0.20;0.20;;;;;;;;;;5050528;28;20045;-59
2021/04/17 07:05:35;;;;;;;0.10;0.10;;;;;;;;;;5049718;28;20021;-60
2021/04/17 07:08:02;;;;;;;0.13;0.13;;;;;;;;;;5049376;28;20391;-60
2021/04/17 07:10:28;;;;;;;0.20;0.20;;;;;;;;;;5048494;28;20050;-60
2021/04/17 07:13:07;;;;;;;0.20;0.20;;;;;;;;;;5048951;28;20056;-60
2021/04/17 07:15:37;;;;;;;0.13;0.13;;;;;;;;;;5042598;28;20029;-60
2021/04/17 07:18:21;;;;;;;0.20;0.20;;;;;;;;;;5037837;28;20025;-60
2021/04/17 07:20:47;;;;;;;0.20;0.20;;;;;;;;;;5032485;28;20061;-60
2021/04/17 07:23:33;;;;;;;2.40;1.65;;;;;;;;;;5050407;28;20440;-60
2021/04/17 07:26:08;;;;;;;0.40;0.40;;;;;;;;;;5049926;28;20032;-60
2021/04/17 07:28:38;;;;;;;0.17;0.17;;;;;;;;;;5050337;28;20032;-60
2021/04/17 07:31:05;;;;;;;1.05;0.95;;;;;;;;;;5050327;28;20032;-60
2021/04/17 07:33:32;;;;;;;0.10;0.10;;;;;;;;;;5047373;28;20116;-61
2021/04/17 07:36:00;;;;;;;0.80;0.77;;;;;;;;;;5050111;28;20025;-60
2021/04/17 07:38:27;;;;;;;0.45;0.35;;;;;;;;;;5050028;28;20118;-60
2021/04/17 07:41:02;;;;;;;0.10;0.10;;;;;;;;;;5050911;28;20407;-60
2021/04/17 07:43:47;;;;;;;0.90;0.65;;;;;;;;;;5050246;28;20052;-60
2021/04/17 07:46:13;;;;;;;0.40;0.40;;;;;;;;;;5049960;28;20048;-60
2021/04/17 07:48:40;;;;;;;1.30;1.20;;;;;;;;;;5049460;28;20478;-61
2021/04/17 07:51:07;;;;;;;0.88;0.65;;;;;;;;;;5050160;28;20040;-60
2021/04/17 07:53:38;;;;;;;0.32;0.28;;;;;;;;;;5050137;28;20025;-60
2021/04/17 07:56:24;;;;;;;0.20;0.20;;;;;;;;;;5050757;28;20037;-60
2021/04/17 07:58:51;;;;;;;0.10;0.10;;;;;;;;;;5048668;28;20060;-60
2021/04/17 08:01:18;;;;;;;0.40;0.40;;;;;;;;;;5049742;28;20029;-60
2021/04/17 08:03:44;;;;;;;0.30;0.30;;;;;;;;;;5049305;28;20068;-60
2021/04/17 08:06:11;;;;;;;0.88;0.82;;;;;;;;;;5049049;28;20398;-61
2021/04/17 08:08:37;;;;;;;0.10;0.10;;;;;;;;;;5048633;28;20837;-61
2021/04/17 08:11:03;;;;;;;0.50;0.50;;;;;;;;;;5046665;28;20057;-63
2021/04/17 08:13:32;;;;;;;0.25;0.25;;;;;;;;;;5044459;28;20513;-59
2021/04/17 08:15:58;;;;;;;0.82;0.82;;;;;;;;;;5045476;28;20112;-61
2021/04/17 08:18:24;;;;;;;2.40;1.08;;;;;;;;;;5040315;28;20036;-62
2021/04/17 08:20:51;;;;;;;0.80;0.80;;;;;;;;;;5042667;28;20028;-60
2021/04/17 08:23:18;;;;;;;0.10;0.10;;;;;;;;;;5044462;28;20445;-59
2021/04/17 08:25:44;;;;;;;0.10;0.10;;;;;;;;;;5047902;28;20044;-61
2021/04/17 08:28:17;;;;;;;0.10;0.10;;;;;;;;;;5047660;28;20024;-59
2021/04/17 08:30:44;;;;;;;0.10;0.10;;;;;;;;;;5045703;28;20021;-60
2021/04/17 08:33:14;;;;;;;0.10;0.10;;;;;;;;;;5046056;28;20413;-59
2021/04/17 08:35:40;;;;;;;0.10;0.10;;;;;;;;;;5047732;28;20033;-59
2021/04/17 08:38:08;;;;;;;0.20;0.20;;;;;;;;;;5047506;28;20418;-63
2021/04/17 08:40:37;;;;;;;1.15;0.50;;;;;;;;;;5044179;28;20582;-62
2021/04/17 08:43:04;;;;;;;0.85;0.65;;;;;;;;;;5047715;28;20497;-60
2021/04/17 08:45:30;;;;;;;1.00;0.95;;;;;;;;;;5045172;28;20021;-60
2021/04/17 08:47:58;;;;;;;1.35;0.45;;;;;;;;;;5050782;28;20449;-61
2021/04/17 08:50:34;;;;;;;0.10;0.10;;;;;;;;;;5050105;28;20051;-62
2021/04/17 08:53:12;;;;;;;7.53;0.60;;;;;;;;;;5052560;28;20035;-61
2021/04/17 08:55:38;;;;;;;0.55;0.55;;;;;;;;;;5036226;28;20504;-61
2021/04/17 08:58:11;;;;;;;0.60;0.60;;;;;;;;;;5035396;28;20040;-66
2021/04/17 09:00:38;;;;;;;1.08;0.40;;;;;;;;;;5040253;28;20028;-61
2021/04/17 09:03:04;;;;;;;0.10;0.10;;;;;;;;;;5048624;28;20040;-62
2021/04/17 09:05:43;;;;;;;0.20;0.20;;;;;;;;;;5045394;28;20029;-59
2021/04/17 09:08:14;;;;;;;3.25;1.88;;;;;;;;;;5067944;28;20036;-64
2021/04/17 09:10:40;;;;;;;0.13;0.13;;;;;;;;;;5046864;28;20024;-60
2021/04/17 09:13:20;;;;;;;0.70;0.38;;;;;;;;;;5045555;28;20068;-62
2021/04/17 09:15:57;;;;;;;0.57;0.57;;;;;;;;;;5043821;28;20495;-62
2021/04/17 09:18:38;;;;;;;0.10;0.10;;;;;;;;;;5041953;28;20029;-61
2021/04/17 09:21:07;;;;;;;0.43;0.43;;;;;;;;;;5048482;28;20033;-62
2021/04/17 09:23:44;;;;;;;0.10;0.10;;;;;;;;;;5045370;28;20124;-62
2021/04/17 09:26:28;;;;;;;0.15;0.15;;;;;;;;;;5045545;28;20551;-58
2021/04/17 09:28:55;;;;;;;0.68;0.68;;;;;;;;;;5042276;28;20501;-62
2021/04/17 09:31:21;;;;;;;0.22;0.22;;;;;;;;;;5050126;28;20128;-64
2021/04/17 09:33:47;;;;;;;0.57;0.57;;;;;;;;;;5047152;28;20037;-61
2021/04/17 09:36:21;;;;;;;0.08;0.08;;;;;;;;;;5049839;28;20402;-62
2021/04/17 09:38:47;;;;;;;1.85;0.98;;;;;;;;;;5050621;28;20040;-61
2021/04/17 09:41:14;;;;;;;0.52;0.52;;;;;;;;;;5048536;28;20029;-62
2021/04/17 09:43:40;;;;;;;0.15;0.15;;;;;;;;;;5049047;28;20037;-60
2021/04/17 09:46:07;;;;;;;0.30;0.30;;;;;;;;;;5046514;28;20430;-60
2021/04/17 09:48:40;;;;;;;1.00;0.90;;;;;;;;;;5048154;28;20469;-60
2021/04/17 09:51:17;;;;;;;0.52;0.40;;;;;;;;;;5049403;28;20039;-62
2021/04/17 09:53:43;;;;;;;1.48;0.70;;;;;;;;;;5045651;28;20033;-59
2021/04/17 09:56:14;;;;;;;0.60;0.55;;;;;;;;;;5048048;28;20036;-59
2021/04/17 09:58:44;;;;;;;0.30;0.30;;;;;;;;;;5045699;28;20032;-60
2021/04/17 10:01:17;;;;;;;1.27;1.17;;;;;;;;;;5044558;28;20033;-60
2021/04/17 10:03:45;;;;;;;0.65;0.20;;;;;;;;;;5045364;28;20033;-61
2021/04/17 10:06:23;;;;;;;0.65;0.65;;;;;;;;;;5047811;28;20025;-60
2021/04/17 10:08:50;;;;;;;0.90;0.57;;;;;;;;;;5040764;28;20035;-62
2021/04/17 10:11:24;;;;;;;0.10;0.10;;;;;;;;;;5043134;28;20025;-66
2021/04/17 10:13:50;;;;;;;3.20;1.42;;;;;;;;;;5048067;28;20041;-60
2021/04/17 10:16:25;;;;;;;0.22;0.22;;;;;;;;;;5047621;28;20112;-60
2021/04/17 10:18:51;;;;;;;0.45;0.45;;;;;;;;;;5047472;28;20025;-62
2021/04/17 10:21:22;;;;;;;5.05;4.40;;;;;;;;;;5047856;28;20116;-59
2021/04/17 10:24:08;;;;;;;0.63;0.63;;;;;;;;;;5048727;28;20039;-60
2021/04/17 10:26:34;;;;;;;3.40;1.92;;;;;;;;;;5048028;28;20033;-62
2021/04/17 10:29:01;;;;;;;1.08;0.57;;;;;;;;;;5048614;28;20114;-60
2021/04/17 10:31:27;;;;;;;1.40;1.10;;;;;;;;;;5046855;28;20482;-61
2021/04/17 10:33:55;;;;;;;0.70;0.70;;;;;;;;;;5058437;28;20561;-65
2021/04/17 10:36:22;;;;;;;1.67;0.63;;;;;;;;;;5057294;28;20020;-60
2021/04/17 10:38:51;;;;;;;0.68;0.68;;;;;;;;;;5033242;28;20052;-60
2021/04/17 10:41:28;;;;;;;0.10;0.10;;;;;;;;;;5034425;28;20033;-60
2021/04/17 10:44:13;;;;;;;0.30;0.30;;;;;;;;;;5036030;28;20431;-60
2021/04/17 10:46:43;;;;;;;8.95;2.22;;;;;;;;;;5038362;28;20033;-60
2021/04/17 10:49:10;;;;;;;7.78;1.13;;;;;;;;;;5038953;28;20128;-60
2021/04/17 10:51:37;;;;;;;0.65;0.47;;;;;;;;;;5044455;28;20049;-60
2021/04/17 10:54:04;;;;;;;1.45;1.00;;;;;;;;;;5037403;28;20037;-60
2021/04/17 10:56:31;;;;;;;0.10;0.10;;;;;;;;;;5034038;28;20036;-60
2021/04/17 10:59:01;;;;;;;9.68;4.88;;;;;;;;;;5036961;28;20032;-59
2021/04/17 11:01:28;;;;;;;0.60;0.40;;;;;;;;;;5038683;28;20080;-60
2021/04/17 11:03:58;;;;;;;5.65;0.30;;;;;;;;;;5038588;28;20065;-60
2021/04/17 11:06:32;;;;;;;0.55;0.50;;;;;;;;;;5040503;28;20036;-60
2021/04/17 11:09:08;;;;;;;0.47;0.40;;;;;;;;;;5048074;28;20044;-63
2021/04/17 11:11:35;;;;;;;1.25;0.98;;;;;;;;;;5048460;28;20029;-60
2021/04/17 11:14:03;;;;;;;6.70;2.28;;;;;;;;;;5046208;28;20045;-59
2021/04/17 11:16:35;;;;;;;3.60;0.90;;;;;;;;;;5046517;28;20029;-60
2021/04/17 11:19:02;;;;;;;0.10;0.10;;;;;;;;;;5045058;28;20064;-59
2021/04/17 11:21:28;;;;;;;0.95;0.90;;;;;;;;;;5046305;28;20036;-63
2021/04/17 11:24:02;;;;;;;0.65;0.65;;;;;;;;;;5046204;28;20045;-60
2021/04/17 11:26:33;;;;;;;2.27;1.73;;;;;;;;;;5045983;28;20021;-62
2021/04/17 11:29:01;;;;;;;8.35;1.70;;;;;;;;;;5046880;28;20032;-65
2021/04/17 11:31:31;;;;;;;1.20;0.95;;;;;;;;;;5044507;28;20028;-60
2021/04/17 11:33:59;;;;;;;0.90;0.90;;;;;;;;;;5043004;28;20029;-62
2021/04/17 11:36:26;;;;;;;4.97;1.98;;;;;;;;;;5045557;28;20052;-61
2021/04/17 11:38:53;;;;;;;0.50;0.35;;;;;;;;;;5046199;28;20505;-61
2021/04/17 11:41:19;;;;;;;2.75;1.65;;;;;;;;;;5045787;28;20036;-64
2021/04/17 11:43:45;;;;;;;2.28;1.25;;;;;;;;;;5046309;28;20105;-60
2021/04/17 11:46:12;;;;;;;1.60;0.90;;;;;;;;;;5044267;28;20033;-61
2021/04/17 11:48:39;;;;;;;1.95;1.33;;;;;;;;;;5044760;28;20036;-60
2021/04/17 11:51:05;;;;;;;0.30;0.30;;;;;;;;;;5043829;28;20037;-61
2021/04/17 11:53:31;;;;;;;1.02;0.95;;;;;;;;;;5046633;28;20112;-60
2021/04/17 11:55:57;;;;;;;3.90;2.22;;;;;;;;;;5046281;28;20051;-60
2021/04/17 11:58:23;;;;;;;1.52;0.88;;;;;;;;;;5045759;28;20542;-62
2021/04/17 12:00:50;;;;;;;1.83;1.55;;;;;;;;;;5045317;28;20017;-61
2021/04/17 12:03:21;;;;;;;1.27;0.60;;;;;;;;;;5044822;28;20040;-63
2021/04/17 12:05:51;;;;;;;3.45;2.40;;;;;;;;;;5045926;28;20021;-60
2021/04/17 12:08:17;;;;;;;1.60;1.50;;;;;;;;;;5043526;28;20437;-62
2021/04/17 12:10:44;;;;;;;1.15;0.70;;;;;;;;;;5044620;28;20056;-62
2021/04/17 12:13:10;;;;;;;2.30;1.15;;;;;;;;;;5045178;28;20119;-62
2021/04/17 12:15:37;;;;;;;1.75;1.05;;;;;;;;;;5045723;28;20035;-62
2021/04/17 12:18:03;;;;;;;0.10;0.10;;;;;;;;;;5045705;28;20426;-62
2021/04/17 12:20:29;;;;;;;1.67;1.30;;;;;;;;;;5045791;28;20037;-65
2021/04/17 12:22:56;;;;;;;0.68;0.50;;;;;;;;;;5048181;28;20045;-63
2021/04/17 12:25:22;;;;;;;1.45;1.10;;;;;;;;;;5048490;28;20049;-62
2021/04/17 12:27:48;;;;;;;1.55;1.00;;;;;;;;;;5048597;28;20040;-61
2021/04/17 12:30:15;;;;;;;3.42;2.10;;;;;;;;;;5046398;28;20537;-60
2021/04/17 12:32:41;;;;;;;0.93;0.45;;;;;;;;;;5048870;28;20021;-59
2021/04/17 12:35:09;;;;;;;0.20;0.20;;;;;;;;;;5048380;28;20060;-59
2021/04/17 12:37:35;;;;;;;0.77;0.77;;;;;;;;;;5045802;28;20455;-59
2021/04/17 12:40:01;;;;;;;1.77;1.40;;;;;;;;;;5048417;28;20025;-59
2021/04/17 12:42:27;;;;;;;2.15;1.88;;;;;;;;;;5048308;28;20041;-59
2021/04/17 12:44:54;;;;;;;8.13;2.00;;;;;;;;;;5045934;28;20469;-59
2021/04/17 12:47:20;;;;;;;1.00;0.80;;;;;;;;;;5048853;28;20021;-59
2021/04/17 12:49:46;;;;;;;1.05;0.95;;;;;;;;;;5049040;28;20049;-59
2021/04/17 12:52:12;;;;;;;1.92;1.73;;;;;;;;;;5048373;28;20021;-60
2021/04/17 12:54:38;;;;;;;6.57;2.22;;;;;;;;;;5048304;28;20031;-59
2021/04/17 12:57:04;;;;;;;0.40;0.40;;;;;;;;;;5048717;28;20071;-58
2021/04/17 12:59:30;;;;;;;0.88;0.88;;;;;;;;;;5048568;28;20048;-59
2021/04/17 13:01:57;;;;;;;2.05;1.13;;;;;;;;;;5047929;28;20032;-61
2021/04/17 13:04:23;;;;;;;4.18;1.35;;;;;;;;;;5048515;28;20029;-59
2021/04/17 13:06:49;;;;;;;0.93;0.73;;;;;;;;;;5048382;28;20036;-58
2021/04/17 13:09:15;;;;;;;3.50;1.75;;;;;;;;;;5047914;28;20029;-59
2021/04/17 13:11:41;;;;;;;4.03;1.45;;;;;;;;;;5049988;28;20024;-61
2021/04/17 13:14:08;;;;;;;3.97;0.85;;;;;;;;;;5052765;28;20111;-62
2021/04/17 13:16:34;;;;;;;4.13;1.15;;;;;;;;;;5051394;28;20029;-62
2021/04/17 13:19:00;;;;;;;2.80;1.80;;;;;;;;;;5051991;28;20025;-62
2021/04/17 13:21:26;;;;;;;5.32;1.75;;;;;;;;;;5051442;28;20017;-62
2021/04/17 13:23:52;;;;;;;3.13;1.58;;;;;;;;;;5051911;28;20056;-61
2021/04/17 13:37:07;;;;;;;1.85;1.45;;;;;;;;;;4634770;23;20065;-69
2021/04/17 13:39:33;;;;;;;19.58;1.35;;;;;;;;;;5024866;28;20026;-69
2021/04/17 13:41:59;;;;;;;0.85;0.55;;;;;;;;;;5030537;28;20417;-68
2021/04/17 13:44:25;;;;;;;1.25;1.15;;;;;;;;;;5027484;28;20465;-69
2021/04/17 13:46:51;;;;;;;0.50;0.50;;;;;;;;;;5027778;28;20143;-69
2021/04/17 13:49:17;;;;;;;0.85;0.85;;;;;;;;;;5025634;28;20124;-69
2021/04/17 13:51:44;;;;;;;2.40;1.67;;;;;;;;;;5024943;28;20022;-69
2021/04/17 13:54:10;;;;;;;3.03;1.98;;;;;;;;;;5023624;28;20073;-70
2021/04/17 13:56:36;;;;;;;5.97;2.15;;;;;;;;;;5025694;28;20029;-68
2021/04/17 13:59:02;;;;;;;0.10;0.10;;;;;;;;;;5025659;28;20035;-69
2021/04/17 14:01:28;;;;;;;1.52;0.80;;;;;;;;;;5021661;28;20125;-69
2021/04/17 14:03:54;;;;;;;6.53;0.75;;;;;;;;;;5024254;28;20037;-69
2021/04/17 14:06:20;;;;;;;14.32;2.83;;;;;;;;;;5025232;28;20474;-69
2021/04/17 14:08:47;;;;;;;0.80;0.55;;;;;;;;;;5027680;28;20061;-69
2021/04/17 14:11:13;;;;;;;0.40;0.40;;;;;;;;;;5024269;28;20116;-69
2021/04/17 14:13:39;;;;;;;4.50;0.82;;;;;;;;;;5026830;28;20040;-69
2021/04/17 14:16:05;;;;;;;0.73;0.73;;;;;;;;;;5027712;28;20177;-69
2021/04/17 14:18:31;;;;;;;0.60;0.60;;;;;;;;;;5026153;28;20057;-69
2021/04/17 14:20:58;;;;;;;2.92;1.05;;;;;;;;;;5029621;28;20095;-69
2021/04/17 14:23:24;;;;;;;1.27;0.90;;;;;;;;;;5029411;28;20120;-69
2021/04/17 14:25:50;;;;;;;3.33;0.50;;;;;;;;;;5028692;28;20033;-69
2021/04/17 14:28:16;;;;;;;3.08;2.15;;;;;;;;;;5027187;28;20034;-69
2021/04/17 14:30:43;;;;;;;1.38;1.27;;;;;;;;;;5026473;28;20014;-68
2021/04/17 14:33:09;;;;;;;0.57;0.30;;;;;;;;;;5028324;28;20095;-69
2021/04/17 14:35:35;;;;;;;6.18;0.90;;;;;;;;;;5028158;28;20038;-68
2021/04/17 14:38:01;;;;;;;2.58;1.90;;;;;;;;;;5031179;28;20040;-68
2021/04/17 14:40:27;;;;;;;1.90;0.82;;;;;;;;;;5028536;28;20491;-68
2021/04/17 14:42:53;;;;;;;7.43;0.63;;;;;;;;;;5023812;28;20057;-69
2021/04/17 14:45:20;;;;;;;0.77;0.77;;;;;;;;;;5027999;28;20057;-68
2021/04/17 14:47:46;;;;;;;2.80;1.08;;;;;;;;;;5030834;28;20414;-67
2021/04/17 14:50:13;;;;;;;0.75;0.63;;;;;;;;;;5030682;28;20029;-69
2021/04/17 14:52:39;;;;;;;4.53;1.08;;;;;;;;;;5029005;28;20132;-68
2021/04/17 14:55:06;;;;;;;2.35;0.90;;;;;;;;;;5030562;28;20029;-68
2021/04/17 14:57:32;;;;;;;11.15;1.05;;;;;;;;;;5030198;28;20029;-67
2021/04/17 14:59:59;;;;;;;4.38;1.45;;;;;;;;;;5028786;28;20017;-67
2021/04/17 15:02:25;;;;;;;0.30;0.30;;;;;;;;;;5026299;28;20115;-69
2021/04/17 15:04:51;;;;;;;0.75;0.73;;;;;;;;;;5017136;28;20414;-67
2021/04/17 15:07:17;;;;;;;1.92;0.88;;;;;;;;;;5018861;28;20022;-66
2021/04/17 15:09:43;;;;;;;1.02;0.82;;;;;;;;;;5020347;28;20400;-70